LXGB

Details ICAO LXGB (GIB)
Name Gibraltar
Region Gibralter
Timezone Europe/Gibraltar (UTC+2.0)
Plans Departing 858
Arriving 1020
Stats Elevation 15 ft / 5 m (AMSL)
Location 36.151209° -5.349664°
Runways 1
Magnetic Variation 1.064° W
Sunrise 2018-06-19 05:05:26 UTC / 2018-06-19 07:05:26 Local
Sunset 2018-06-19 19:42:34 UTC / 2018-06-19 21:42:34 Local
Advertisement - Login to hide

Runways

ID Width Length Bearing (true) Bearing (mag) Surface Threshold Offset Overrun Length
27 151 ft / 46 m 5,992 ft / 1,826 m 267.56° 268.62° Asphalt 367 ft / 112 m 89 ft / 27 m
9 151 ft / 46 m 5,992 ft / 1,826 m 87.54° 88.60° Asphalt 299 ft / 91 m 52 ft / 16 m

Map

Weather


0- 5 10 15 20 25 30 35+ Temperature / ° C

Clouds and Precipitation
Forecast for 2018-06-19 06:00 UTC. Updated 5 hours ago

Ground ~20,000 ft ~40,000 ft Winds

METAR

LXGB 190750Z 09013KT 9999 FEW014 21/18 Q1020 NOSIG

TAF

Not found

Frequencies

Tower 131.20 MHz TWR
Approach 130.40 MHz RDR
Approach 122.80 MHz APP
Warning: Do not use this data for real-world aviation or navigation. No guarantee of current accuracy is given.